Time;durP1;ratioP1;P1;durP2;ratioP2;P2;SDS_P1;SDS_P2;PMS_P1;PMS_P2;Temp;Humidity;BMP_temperature;BMP_pressure;BME280_temperature;BME280_humidity;BME280_pressure;Samples;Min_cycle;Max_cycle;Signal;HPM_P1;HPM_P2
2023/05/03 00:00:52;;;;;;;14.38;6.95;;;;;;;7.37;91.83;101485.56;5120939;28;20142;-91
2023/05/03 00:03:22;;;;;;;9.88;6.47;;;;;;;7.46;90.74;101486.28;5121623;28;20106;-92
2023/05/03 00:05:49;;;;;;;11.32;6.22;;;;;;;7.43;90.81;101491.59;5124176;28;20043;-93
2023/05/03 00:08:17;;;;;;;12.18;6.43;;;;;;;7.36;90.34;101490.84;5124434;28;20047;-93
2023/05/03 00:10:44;;;;;;;14.10;6.47;;;;;;;7.37;90.45;101488.19;5129690;28;20071;-94
2023/05/03 00:13:13;;;;;;;12.25;6.30;;;;;;;7.36;89.74;101494.34;5136146;28;20099;-93
2023/05/03 00:15:47;;;;;;;10.57;6.60;;;;;;;7.29;90.15;101490.06;5133207;28;20039;-93
2023/05/03 00:18:14;;;;;;;10.88;6.35;;;;;;;7.17;90.30;101470.97;5130522;28;20027;-93
2023/05/03 00:20:41;;;;;;;12.27;6.55;;;;;;;7.17;91.02;101474.47;5137512;28;20070;-92
2023/05/03 00:23:08;;;;;;;12.10;6.30;;;;;;;7.17;92.07;101473.59;5136964;28;20054;-93
2023/05/03 00:25:37;;;;;;;11.20;6.43;;;;;;;7.15;92.15;101478.00;5134156;28;20047;-95
2023/05/03 00:28:08;;;;;;;14.75;6.13;;;;;;;7.12;92.61;101462.25;5132038;28;20105;-92
2023/05/03 00:30:36;;;;;;;16.02;6.55;;;;;;;7.08;92.26;101471.97;5129866;28;20047;-90
2023/05/03 00:33:04;;;;;;;13.15;7.10;;;;;;;7.09;92.65;101476.31;5129774;28;20074;-90
2023/05/03 00:35:36;;;;;;;14.27;7.13;;;;;;;7.07;92.91;101466.75;5134970;28;20047;-91
2023/05/03 00:38:04;;;;;;;13.10;7.05;;;;;;;6.89;93.10;101447.69;5133536;28;20046;-90
2023/05/03 00:40:31;;;;;;;9.82;6.75;;;;;;;6.82;93.71;101446.03;5133914;28;20043;-91
2023/05/03 00:42:58;;;;;;;12.20;6.47;;;;;;;6.75;94.13;101431.22;5136574;28;20044;-91
2023/05/03 00:45:25;;;;;;;16.50;7.22;;;;;;;6.95;93.43;101465.13;5137882;28;20042;-92
2023/05/03 00:48:07;;;;;;;;;;;;;;;6.93;94.63;101465.16;5138326;28;20099;-91
2023/05/03 00:50:36;;;;;;;11.88;6.60;;;;;;;6.85;94.61;101458.28;5137398;28;19910;-91
2023/05/03 00:53:03;;;;;;;11.93;6.55;;;;;;;6.84;94.92;101464.44;5137047;28;20044;-91
2023/05/03 00:55:32;;;;;;;12.70;7.15;;;;;;;6.76;95.45;101455.78;5137770;28;20047;-91
2023/05/03 00:58:07;;;;;;;10.77;6.45;;;;;;;6.65;96.83;101441.00;5137714;28;20036;-91
2023/05/03 01:00:37;;;;;;;14.07;7.32;;;;;;;6.68;96.10;101450.63;5136526;28;20047;-92
2023/05/03 01:03:06;;;;;;;14.63;7.20;;;;;;;6.51;97.55;101421.91;5134109;28;20073;-91
2023/05/03 01:06:01;;;;;;;13.35;6.60;;;;;;;6.69;96.57;101455.88;5129774;28;20055;-91
2023/05/03 01:08:38;;;;;;;14.40;7.28;;;;;;;6.59;96.89;101445.50;5130842;28;20051;-91
2023/05/03 01:11:18;;;;;;;12.40;7.68;;;;;;;6.61;97.15;101457.72;5127811;28;20070;-90
2023/05/03 01:14:07;;;;;;;15.40;7.63;;;;;;;6.55;98.24;101462.22;5122626;28;20409;-92
2023/05/03 01:16:48;;;;;;;14.05;7.13;;;;;;;6.38;98.41;101430.00;5125624;28;20488;-92
2023/05/03 01:19:37;;;;;;;10.65;6.95;;;;;;;6.42;98.86;101442.22;5125100;28;20048;-92
2023/05/03 01:22:46;;;;;;;12.25;6.80;;;;;;;6.51;99.51;101450.84;5125092;28;20051;-93
2023/05/03 01:25:14;;;;;;;12.55;6.85;;;;;;;6.40;100.00;101430.84;5123285;28;20070;-92
2023/05/03 01:27:44;;;;;;;14.30;6.85;;;;;;;6.46;99.97;101436.88;5135938;28;20056;-91
2023/05/03 01:30:13;;;;;;;14.80;7.15;;;;;;;6.45;100.00;101442.19;5134462;28;20063;-92
2023/05/03 01:32:59;;;;;;;13.68;7.40;;;;;;;6.30;100.00;101422.19;5135002;28;20036;-92
2023/05/03 01:35:51;;;;;;;12.32;7.13;;;;;;;6.39;100.00;101443.13;5134814;28;20043;-91
2023/05/03 01:38:21;;;;;;;14.45;7.13;;;;;;;6.38;100.00;101440.53;5127258;28;20048;-92
2023/05/03 01:40:52;;;;;;;13.13;6.75;;;;;;;6.27;100.00;101422.25;5126680;28;20127;-92
2023/05/03 01:43:22;;;;;;;14.13;7.22;;;;;;;6.30;100.00;101432.72;5125707;28;20095;-92
2023/05/03 01:45:51;;;;;;;16.35;7.80;;;;;;;6.24;100.00;101427.53;5125491;28;20372;-93
2023/05/03 01:48:21;;;;;;;12.93;7.10;;;;;;;6.22;100.00;101435.44;5125674;28;20048;-93
2023/05/03 01:50:49;;;;;;;11.23;7.18;;;;;;;6.18;100.00;101424.97;5125429;28;20039;-94
2023/05/03 01:53:17;;;;;;;13.32;7.13;;;;;;;6.29;100.00;101436.25;5126912;28;20400;-93
2023/05/03 01:55:46;;;;;;;10.95;6.93;;;;;;;6.25;100.00;101418.78;5132768;28;20107;-94
2023/05/03 01:58:13;;;;;;;14.20;7.10;;;;;;;6.26;100.00;101431.91;5140572;28;20050;-90
2023/05/03 02:00:39;;;;;;;13.85;7.65;;;;;;;6.20;100.00;101426.72;5139937;28;20043;-93
2023/05/03 02:03:07;;;;;;;14.52;7.38;;;;;;;6.12;100.00;101423.31;5124234;28;20036;-93
2023/05/03 02:05:34;;;;;;;15.65;7.63;;;;;;;6.09;100.00;101439.13;5140599;28;20095;-91
2023/05/03 02:08:03;;;;;;;13.38;7.57;;;;;;;6.02;100.00;101441.84;5139331;28;20088;-92
2023/05/03 02:10:33;;;;;;;13.75;7.22;;;;;;;6.04;100.00;101438.31;5137178;28;20058;-91
2023/05/03 02:13:02;;;;;;;11.32;7.25;;;;;;;5.90;100.00;101417.44;5137145;28;20124;-92
2023/05/03 02:15:31;;;;;;;13.77;7.50;;;;;;;6.02;100.00;101439.19;5123642;28;20069;-92
2023/05/03 02:18:01;;;;;;;13.57;7.40;;;;;;;6.01;100.00;101450.59;5140178;28;20031;-92
2023/05/03 02:20:31;;;;;;;12.00;7.28;;;;;;;5.94;100.00;101452.44;5140358;28;20093;-92
2023/05/03 02:23:01;;;;;;;12.27;7.13;;;;;;;5.92;100.00;101441.09;5139455;27;20081;-93
2023/05/03 02:25:48;;;;;;;12.50;7.85;;;;;;;5.90;100.00;101458.63;5140264;27;20046;-93
2023/05/03 02:28:19;;;;;;;15.20;7.47;;;;;;;5.84;100.00;101458.66;5140147;28;20104;-92
2023/05/03 02:30:46;;;;;;;12.95;7.70;;;;;;;5.63;100.00;101444.88;5139780;28;20062;-93
2023/05/03 02:33:13;;;;;;;13.30;7.05;;;;;;;5.63;100.00;101444.88;5139590;27;20031;-92
2023/05/03 02:35:40;;;;;;;17.40;7.85;;;;;;;5.77;100.00;101471.00;5140614;28;20028;-92
2023/05/03 02:38:06;;;;;;;14.68;8.30;;;;;;;5.50;100.00;101427.47;5113722;28;20349;-92
2023/05/03 02:40:37;;;;;;;13.45;7.18;;;;;;;5.54;100.00;101451.94;5124988;28;20100;-93
2023/05/03 02:43:08;;;;;;;13.82;7.88;;;;;;;5.51;100.00;101446.75;5123829;28;20039;-92
2023/05/03 02:45:38;;;;;;;14.23;7.60;;;;;;;5.32;100.00;101416.28;5122144;28;20046;-91
2023/05/03 02:48:08;;;;;;;11.98;7.22;;;;;;;5.58;100.00;101461.53;5123236;28;20112;-93
2023/05/03 02:50:42;;;;;;;14.48;7.60;;;;;;;5.66;100.00;101470.25;5123226;28;20408;-93
2023/05/03 02:53:10;;;;;;;19.63;8.32;;;;;;;5.54;100.00;101458.06;5107071;28;20047;-91
2023/05/03 02:55:37;;;;;;;11.13;7.60;;;;;;;5.36;100.00;101434.59;5109705;28;20046;-91
2023/05/03 02:58:15;;;;;;;12.45;7.25;;;;;;;5.48;100.00;101449.41;5133792;28;20059;-91
2023/05/03 03:00:45;;;;;;;12.43;7.03;;;;;;;5.53;100.00;101458.09;5135284;28;20072;-91
2023/05/03 03:03:25;;;;;;;11.65;7.93;;;;;;;5.56;100.00;101452.81;5136426;28;20039;-91
2023/05/03 03:05:58;;;;;;;12.03;7.63;;;;;;;5.48;100.00;101438.88;5132065;28;20103;-89
2023/05/03 03:08:26;;;;;;;15.63;8.32;;;;;;;5.54;100.00;101454.56;5131909;28;20097;-91
2023/05/03 03:10:53;;;;;;;17.20;8.57;;;;;;;5.50;100.00;101447.63;5134119;28;20037;-91
2023/05/03 03:13:25;;;;;;;14.05;7.93;;;;;;;5.50;100.00;101445.00;5136314;28;20044;-91
2023/05/03 03:15:53;;;;;;;15.95;7.93;;;;;;;5.57;100.00;101457.19;5135786;28;20040;-90
2023/05/03 03:18:20;;;;;;;12.85;7.53;;;;;;;5.50;100.00;101450.25;5135252;28;20052;-91
2023/05/03 03:20:47;;;;;;;14.63;8.05;;;;;;;5.48;100.00;101450.25;5117922;28;20054;-91
2023/05/03 03:23:14;;;;;;;14.48;7.53;;;;;;;5.42;100.00;101446.81;5134992;28;20050;-91
2023/05/03 03:25:44;;;;;;;12.82;7.90;;;;;;;5.44;100.00;101445.03;5151592;27;20035;-90
2023/05/03 03:28:22;;;;;;;12.20;7.47;;;;;;;5.47;100.00;101453.78;5134710;28;20067;-91
2023/05/03 03:30:50;;;;;;;15.52;7.35;;;;;;;5.49;100.00;101451.13;5110096;28;20051;-89
2023/05/03 03:33:21;;;;;;;14.20;7.68;;;;;;;5.48;100.00;101455.53;5124997;28;20043;-91
2023/05/03 03:35:54;;;;;;;14.77;7.90;;;;;;;5.48;100.00;101444.13;5128160;28;20043;-91
2023/05/03 03:38:21;;;;;;;13.70;7.30;;;;;;;5.53;100.00;101448.44;5128964;28;20044;-91
2023/05/03 03:40:51;;;;;;;12.95;7.03;;;;;;;5.54;100.00;101446.69;5129489;28;20035;-91
2023/05/03 03:43:28;;;;;;;15.18;7.35;;;;;;;5.47;100.00;101435.38;5128022;28;20048;-92
2023/05/03 03:45:56;;;;;;;13.45;7.35;;;;;;;5.45;100.00;101444.16;5132871;28;20058;-92
2023/05/03 03:48:23;;;;;;;21.20;7.97;;;;;;;5.28;100.00;101418.91;5133102;28;20069;-92
2023/05/03 03:50:51;;;;;;;13.43;7.78;;;;;;;5.40;100.00;101451.19;5117820;28;20047;-92
2023/05/03 03:53:20;;;;;;;17.05;8.48;;;;;;;5.40;100.00;101451.19;5135547;28;20426;-91
2023/05/03 03:55:49;;;;;;;16.92;8.27;;;;;;;5.39;100.00;101452.09;5133472;28;20080;-93
2023/05/03 03:58:16;;;;;;;16.45;8.30;;;;;;;5.45;100.00;101457.28;5136754;28;20062;-91
2023/05/03 04:00:43;;;;;;;16.00;7.68;;;;;;;5.44;100.00;101452.94;5131697;28;20039;-92
2023/05/03 04:03:14;;;;;;;13.65;8.00;;;;;;;5.42;100.00;101459.94;5134673;28;20035;-91
2023/05/03 04:05:41;;;;;;;14.88;8.48;;;;;;;5.43;100.00;101445.94;5120942;28;20069;-89
2023/05/03 04:08:08;;;;;;;15.30;8.07;;;;;;;5.41;100.00;101445.06;5129996;28;20483;-91
2023/05/03 04:10:35;;;;;;;15.45;8.00;;;;;;;5.32;100.00;101440.78;5121460;28;20039;-88
2023/05/03 04:13:02;;;;;;;12.82;7.25;;;;;;;5.40;100.00;101461.72;5122500;28;20048;-92
2023/05/03 04:15:28;;;;;;;13.65;7.85;;;;;;;5.38;100.00;101459.09;5120781;28;20047;-91
2023/05/03 04:17:58;;;;;;;16.13;8.27;;;;;;;5.37;100.00;101478.38;5122135;28;20464;-91
2023/05/03 04:20:25;;;;;;;15.02;8.30;;;;;;;5.25;100.00;101467.97;5103252;28;20388;-91
2023/05/03 04:22:52;;;;;;;16.02;8.35;;;;;;;5.25;100.00;101468.84;5120619;28;20036;-90
2023/05/03 04:25:26;;;;;;;11.90;8.10;;;;;;;5.38;100.00;101468.72;5127381;28;20044;-90
2023/05/03 04:27:57;;;;;;;15.48;7.85;;;;;;;5.39;100.00;101470.47;5135505;28;20035;-91
2023/05/03 04:30:25;;;;;;;14.40;8.00;;;;;;;5.41;100.00;101468.72;5135617;28;20081;-91
2023/05/03 04:32:54;;;;;;;13.30;8.35;;;;;;;5.37;100.00;101461.72;5136028;28;20069;-91
2023/05/03 04:35:21;;;;;;;15.40;8.40;;;;;;;5.35;100.00;101464.41;5132289;28;20075;-91
2023/05/03 04:37:48;;;;;;;16.75;8.48;;;;;;;5.45;100.00;101494.06;5109392;28;20055;-92
2023/05/03 04:40:18;;;;;;;12.52;8.38;;;;;;;5.45;100.00;101492.31;5124827;28;20039;-91
2023/05/03 04:42:45;;;;;;;11.65;7.72;;;;;;;5.47;100.00;101481.81;5122202;28;20106;-93
2023/05/03 04:45:13;;;;;;;17.67;8.70;;;;;;;5.45;100.00;101475.69;5122104;28;20405;-92
2023/05/03 04:47:40;;;;;;;15.63;8.40;;;;;;;5.53;100.00;101479.09;5123404;28;20080;-91
2023/05/03 04:50:11;;;;;;;17.30;8.30;;;;;;;5.54;100.00;101486.97;5126816;28;20035;-92
2023/05/03 04:52:38;;;;;;;18.00;8.70;;;;;;;5.54;100.00;101492.22;5126956;28;20039;-92
2023/05/03 04:55:09;;;;;;;15.98;8.27;;;;;;;5.55;100.00;101485.22;5103481;28;20097;-93
2023/05/03 04:57:37;;;;;;;16.83;9.02;;;;;;;5.66;100.00;101496.53;5103136;28;20343;-93
2023/05/03 05:00:10;;;;;;;17.73;8.68;;;;;;;5.58;100.00;101475.56;5118773;28;20065;-94
2023/05/03 05:02:37;;;;;;;14.27;7.70;;;;;;;5.71;100.00;101491.19;5120604;28;20040;-93
2023/05/03 05:05:05;;;;;;;12.75;7.85;;;;;;;5.63;100.00;101458.00;5122173;28;20065;-91
2023/05/03 05:07:40;;;;;;;13.30;8.60;;;;;;;5.79;100.00;101482.38;5122906;28;20054;-93
2023/05/03 05:10:09;;;;;;;16.73;8.02;;;;;;;5.78;100.00;101477.13;5124001;28;20043;-93
2023/05/03 05:12:38;;;;;;;13.27;8.60;;;;;;;5.72;100.00;101470.16;5131912;28;20050;-92
2023/05/03 05:15:12;;;;;;;15.82;7.97;;;;;;;5.92;100.00;101502.41;5134126;28;20065;-93
2023/05/03 05:17:49;;;;;;;15.18;8.30;;;;;;;5.94;100.00;101492.75;5120797;28;20054;-92
2023/05/03 05:20:17;;;;;;;15.63;7.90;;;;;;;5.84;99.68;101458.66;5138530;28;20050;-93
2023/05/03 05:22:57;;;;;;;;;;;;;;;6.10;98.38;101487.34;5138582;28;20036;-90
2023/05/03 05:25:38;;;;;;;13.25;7.55;;;;;;;6.21;98.89;101495.97;5129387;28;20415;-92
2023/05/03 05:28:06;;;;;;;9.88;7.25;;;;;;;6.30;99.12;101501.09;5112434;28;20044;-92
2023/05/03 05:30:33;;;;;;;13.23;7.72;;;;;;;6.44;98.80;101493.94;5107276;28;20387;-92
2023/05/03 05:33:01;;;;;;;14.13;8.20;;;;;;;6.40;95.68;101473.81;5124365;28;20054;-91
2023/05/03 05:35:28;;;;;;;12.38;8.05;;;;;;;6.55;94.30;101481.50;5124809;28;20132;-92
2023/05/03 05:37:55;;;;;;;19.58;8.18;;;;;;;6.63;91.69;101498.06;5126901;28;20078;-91
2023/05/03 05:40:24;;;;;;;12.75;7.40;;;;;;;6.57;93.19;101492.03;5134750;28;20051;-91
2023/05/03 05:42:51;;;;;;;12.10;7.38;;;;;;;6.59;94.02;101488.47;5132689;28;20048;-92
2023/05/03 05:45:35;;;;;;;15.02;7.80;;;;;;;6.66;94.30;101490.13;5132519;28;20040;-91
2023/05/03 05:48:04;;;;;;;14.70;7.32;;;;;;;6.68;92.28;101477.81;5129214;28;20418;-91
2023/05/03 05:50:31;;;;;;;13.80;7.68;;;;;;;6.74;91.52;101474.25;5133185;28;20055;-91
2023/05/03 05:52:58;;;;;;;11.38;7.00;;;;;;;6.90;89.78;101506.50;5131008;28;20044;-91
2023/05/03 05:55:24;;;;;;;13.48;8.18;;;;;;;6.85;90.27;101495.13;5124769;28;20120;-91
2023/05/03 05:57:52;;;;;;;17.52;7.72;;;;;;;6.84;89.63;101488.13;5108702;28;20578;-87
2023/05/03 06:04:16;;;;;;;13.82;7.57;;;;;;;6.99;90.34;101472.09;5127806;28;20109;-94
2023/05/03 06:06:55;;;;;;;15.02;7.10;;;;;;;7.18;88.38;101489.38;5126974;28;20043;-94
2023/05/03 06:09:22;;;;;;;14.60;7.78;;;;;;;7.35;87.88;101492.63;5126895;28;20043;-93
2023/05/03 06:11:50;;;;;;;10.77;7.20;;;;;;;7.51;86.88;101485.31;5125756;28;20040;-93
2023/05/03 06:14:19;;;;;;;13.15;6.68;;;;;;;7.69;83.39;101487.66;5132922;28;20111;-93
2023/05/03 06:16:50;;;;;;;10.70;7.05;;;;;;;7.96;80.62;101491.53;5122785;28;20035;-92
2023/05/03 06:19:23;;;;;;;12.82;7.00;;;;;;;8.09;78.54;101465.78;5134141;28;20047;-93
2023/05/03 06:21:55;;;;;;;9.15;6.55;;;;;;;8.16;76.77;101442.81;5125566;28;20122;-93
2023/05/03 06:24:29;;;;;;;9.63;6.17;;;;;;;8.60;75.51;101474.44;5129125;28;20039;-94
2023/05/03 06:26:59;;;;;;;12.82;6.90;;;;;;;8.95;72.13;101472.78;5129409;28;20457;-94
2023/05/03 06:29:27;;;;;;;9.57;6.50;;;;;;;9.15;70.20;101467.88;5137907;28;20103;-94
2023/05/03 06:31:56;;;;;;;8.27;6.03;;;;;;;9.43;68.50;101483.97;5139226;28;20063;-94
2023/05/03 06:34:26;;;;;;;;;;;;;;;9.75;67.38;101493.72;5134468;28;20071;-94
2023/05/03 06:37:01;;;;;;;10.82;6.05;;;;;;;10.03;66.88;101497.34;5132370;28;19922;-94
2023/05/03 06:39:42;;;;;;;9.27;5.93;;;;;;;10.38;64.23;101503.47;5125053;28;20051;-94
2023/05/03 06:42:13;;;;;;;14.25;6.25;;;;;;;10.59;63.24;101504.63;5124214;28;20043;-94
2023/05/03 06:44:49;;;;;;;10.23;5.70;;;;;;;10.79;63.53;101503.13;5124082;28;20050;-93
2023/05/03 06:47:22;;;;;;;14.55;6.30;;;;;;;11.19;59.66;101504.53;5125382;28;20044;-94
2023/05/03 06:49:53;;;;;;;10.32;5.70;;;;;;;11.23;57.39;101490.25;5124960;28;20051;-93
2023/05/03 06:52:21;;;;;;;9.45;6.13;;;;;;;11.31;57.92;101500.63;5122822;28;20044;-93
2023/05/03 06:54:48;;;;;;;8.75;5.82;;;;;;;11.53;58.64;101497.22;5123712;28;20044;-94
2023/05/03 06:57:18;;;;;;;6.75;5.80;;;;;;;11.66;56.91;101464.94;5124058;28;20094;-94
2023/05/03 06:59:54;;;;;;;12.68;6.00;;;;;;;12.03;55.52;101454.81;5123444;28;20361;-93
2023/05/03 07:02:31;;;;;;;10.00;5.57;;;;;;;12.32;54.96;101448.44;5125239;28;20043;-94
2023/05/03 07:05:01;;;;;;;11.40;5.82;;;;;;;12.27;53.92;101456.59;5107125;28;20043;-94
2023/05/03 07:07:38;;;;;;;9.15;5.10;;;;;;;12.04;54.43;101431.78;5128038;28;20047;-94
2023/05/03 07:10:13;;;;;;;8.68;5.03;;;;;;;12.39;54.84;101457.91;5122679;28;20043;-93
2023/05/03 07:12:40;;;;;;;9.07;5.70;;;;;;;12.19;52.47;101394.91;5121400;28;20043;-94
2023/05/03 07:15:11;;;;;;;9.80;5.82;;;;;;;12.66;52.78;101471.94;5090089;28;20455;-94
2023/05/03 07:18:20;;;;;;;9.55;5.55;;;;;;;12.32;53.02;101434.28;5126547;28;20042;-94
2023/05/03 07:21:09;;;;;;;9.02;5.80;;;;;;;12.76;53.26;101457.34;5125817;28;20035;-94
2023/05/03 07:24:02;;;;;;;7.72;5.68;;;;;;;13.17;52.06;101461.06;5125156;28;20059;-93
2023/05/03 07:26:32;;;;;;;10.15;5.20;;;;;;;12.97;51.64;101464.50;5126633;28;20043;-93
2023/05/03 07:29:13;;;;;;;7.00;4.95;;;;;;;12.68;52.40;101475.41;5123844;28;20126;-94
2023/05/03 07:31:43;;;;;;;9.38;5.78;;;;;;;12.52;52.81;101445.03;5127317;28;20039;-94
2023/05/03 07:34:13;;;;;;;7.88;5.18;;;;;;;12.88;52.61;101482.63;5110847;28;20044;-93
2023/05/03 07:37:26;;;;;;;8.90;5.57;;;;;;;12.71;51.76;101483.28;5145214;27;21292;-93
2023/05/03 07:40:32;;;;;;;8.30;5.43;;;;;;;12.63;53.24;101480.03;5058187;28;20103;-94
2023/05/03 07:43:05;;;;;;;9.38;5.75;;;;;;;12.81;53.20;101468.69;5084420;28;20059;-93
2023/05/03 07:45:33;;;;;;;10.63;5.72;;;;;;;13.02;52.17;101476.75;5100698;28;20040;-94
2023/05/03 07:48:05;;;;;;;10.13;5.55;;;;;;;13.10;52.80;101477.28;5101936;28;20140;-94
2023/05/03 07:50:43;;;;;;;9.32;5.80;;;;;;;13.30;52.43;101477.38;5092876;28;20044;-94
2023/05/03 07:53:20;;;;;;;10.15;5.40;;;;;;;13.72;51.84;101472.06;5094654;28;20048;-95
2023/05/03 07:56:01;;;;;;;8.65;5.90;;;;;;;14.00;49.92;101463.75;5090163;28;20048;-93
2023/05/03 07:58:36;;;;;;;11.68;6.25;;;;;;;13.91;49.69;101448.16;5096211;28;20036;-94
2023/05/03 08:01:11;;;;;;;11.35;5.80;;;;;;;14.19;50.76;101466.44;5112239;28;20043;-95
2023/05/03 08:03:39;;;;;;;6.65;5.38;;;;;;;14.50;49.63;101464.13;5106989;28;20056;-93
2023/05/03 08:06:17;;;;;;;9.95;5.93;;;;;;;14.54;48.84;101447.06;5094756;28;20059;-92
2023/05/03 08:08:45;;;;;;;11.90;6.20;;;;;;;14.89;48.06;101449.88;5093351;28;20051;-92
2023/05/03 08:11:25;;;;;;;7.50;5.70;;;;;;;14.96;47.54;101397.94;5091049;28;20103;-94
2023/05/03 08:14:12;;;;;;;10.73;5.75;;;;;;;15.25;46.87;101441.88;5108062;28;20064;-94
2023/05/03 08:16:50;;;;;;;8.77;5.43;;;;;;;14.84;47.02;101428.75;5099158;28;20063;-93
2023/05/03 08:19:27;;;;;;;10.95;5.95;;;;;;;14.95;47.37;101433.59;5133830;27;20100;-92
2023/05/03 08:22:12;;;;;;;10.10;5.90;;;;;;;14.28;47.68;101424.28;5134786;27;20106;-94
2023/05/03 08:24:45;;;;;;;8.82;5.60;;;;;;;14.05;49.11;101438.63;5100057;28;20047;-93
2023/05/03 08:27:18;;;;;;;11.15;5.07;;;;;;;13.90;49.77;101454.41;5119194;27;20040;-94
2023/05/03 08:29:49;;;;;;;8.82;5.50;;;;;;;14.00;49.59;101450.44;5114720;28;20031;-94
2023/05/03 08:32:19;;;;;;;8.30;5.22;;;;;;;14.06;48.69;101442.16;5114514;28;20072;-94
2023/05/03 08:34:55;;;;;;;11.23;5.50;;;;;;;14.22;50.18;101450.31;5127923;28;20075;-94
2023/05/03 08:37:44;;;;;;;7.70;5.57;;;;;;;13.93;49.82;101454.28;5119483;27;20039;-93
2023/05/03 08:40:13;;;;;;;9.05;5.55;;;;;;;13.74;50.81;101450.69;5099481;28;20066;-93
2023/05/03 08:42:45;;;;;;;9.15;5.93;;;;;;;13.77;50.04;101429.28;5117321;27;20043;-94
2023/05/03 08:45:27;;;;;;;9.13;5.40;;;;;;;14.02;51.05;101440.56;5132379;27;20031;-93
2023/05/03 08:48:00;;;;;;;10.73;5.30;;;;;;;14.35;49.77;101420.38;5105857;28;20078;-94
2023/05/03 08:50:31;;;;;;;7.25;5.32;;;;;;;14.84;47.88;101452.75;5100148;28;20052;-94
2023/05/03 08:53:00;;;;;;;6.53;5.13;;;;;;;15.33;47.34;101448.56;5101102;28;20051;-92
2023/05/03 08:55:46;;;;;;;8.90;5.63;;;;;;;15.79;46.08;101446.25;5081988;28;20139;-92
2023/05/03 08:58:16;;;;;;;9.93;5.55;;;;;;;16.03;45.90;101446.78;5102155;27;20036;-93
2023/05/03 09:00:43;;;;;;;9.60;5.78;;;;;;;15.83;44.86;101452.31;5102710;27;20032;-93
2023/05/03 09:03:13;;;;;;;9.57;5.75;;;;;;;16.00;44.58;101452.28;5102271;28;20139;-93
2023/05/03 09:05:45;;;;;;;8.68;5.35;;;;;;;15.86;45.61;101455.69;5086732;27;20052;-93
2023/05/03 09:08:23;;;;;;;8.07;5.28;;;;;;;16.04;44.86;101421.81;5116623;27;20076;-94
2023/05/03 09:11:05;;;;;;;9.20;5.45;;;;;;;15.96;45.19;101413.31;5108698;22;20126;-93
2023/05/03 09:13:42;;;;;;;9.27;5.22;;;;;;;15.73;44.89;101439.44;5108592;22;20061;-94
2023/05/03 09:16:21;;;;;;;10.02;5.75;;;;;;;14.95;46.70;101444.25;5080528;28;20134;-94
2023/05/03 09:18:57;;;;;;;8.02;5.38;;;;;;;14.24;48.46;101419.16;5119163;27;20062;-94
2023/05/03 09:21:30;;;;;;;7.30;5.50;;;;;;;14.24;48.82;101454.66;5197014;22;20051;-93
2023/05/03 09:23:58;;;;;;;10.65;6.07;;;;;;;14.06;49.37;101447.47;5106266;28;20043;-93
2023/05/03 09:26:39;;;;;;;11.15;6.80;;;;;;;13.66;50.03;101429.75;5124275;28;20040;-93
2023/05/03 09:29:30;;;;;;;8.25;5.47;;;;;;;13.58;51.37;101450.50;5123467;28;20077;-94
2023/05/03 09:32:11;;;;;;;8.68;6.07;;;;;;;13.66;50.94;101437.72;5109005;28;20035;-94
2023/05/03 09:34:44;;;;;;;11.88;6.47;;;;;;;13.70;51.00;101424.19;5122979;28;20040;-93
2023/05/03 09:37:37;;;;;;;10.38;6.28;;;;;;;13.69;51.64;101408.31;5109509;28;20044;-92
2023/05/03 09:40:28;;;;;;;8.98;6.10;;;;;;;13.78;51.49;101431.00;5139638;28;20034;-93
2023/05/03 09:43:08;;;;;;;10.10;6.60;;;;;;;13.71;51.23;101406.44;5112092;28;20073;-93
2023/05/03 09:45:50;;;;;;;8.35;6.15;;;;;;;13.82;51.23;101414.84;5114033;28;20044;-93
2023/05/03 09:48:22;;;;;;;8.55;5.95;;;;;;;13.91;50.99;101416.22;5116067;28;20032;-93
2023/05/03 09:50:50;;;;;;;10.60;6.05;;;;;;;13.82;50.21;101413.97;5105734;28;20054;-93
2023/05/03 09:53:20;;;;;;;9.32;6.57;;;;;;;13.73;50.04;101407.25;5120487;28;20053;-93
2023/05/03 09:55:49;;;;;;;11.57;6.63;;;;;;;13.70;51.01;101410.03;5138793;28;20043;-92
2023/05/03 09:58:24;;;;;;;9.05;5.88;;;;;;;13.84;50.13;101415.63;5138399;28;20099;-92
2023/05/03 10:01:00;;;;;;;11.88;6.35;;;;;;;13.98;49.93;101412.34;5107308;28;20073;-91
2023/05/03 10:03:43;;;;;;;8.75;5.75;;;;;;;13.84;49.75;101380.16;5121839;28;20051;-94
2023/05/03 10:06:30;;;;;;;6.95;5.18;;;;;;;14.08;49.31;101381.69;5120845;28;20031;-93
2023/05/03 10:09:41;;;;;;;11.98;5.88;;;;;;;14.48;48.88;101409.19;5111829;28;20044;-94
2023/05/03 10:12:17;;;;;;;9.27;5.20;;;;;;;14.74;47.37;101400.81;5124509;28;20057;-94
2023/05/03 10:14:47;;;;;;;10.32;6.10;;;;;;;14.87;46.63;101391.28;5106328;28;20154;-94
2023/05/03 10:17:33;;;;;;;9.65;5.80;;;;;;;14.87;47.58;101385.94;5125569;28;20108;-94
2023/05/03 10:20:44;;;;;;;10.52;5.90;;;;;;;14.90;47.30;101382.28;5124890;28;20086;-94
2023/05/03 10:23:13;;;;;;;10.80;5.97;;;;;;;14.88;46.65;101379.69;5109698;28;20046;-94
2023/05/03 10:26:12;;;;;;;8.95;5.30;;;;;;;14.82;44.63;101387.97;5120729;28;20035;-93
2023/05/03 10:28:39;;;;;;;9.40;5.20;;;;;;;14.78;44.48;101388.22;5121470;27;20042;-92
2023/05/03 10:31:46;;;;;;;6.07;4.78;;;;;;;14.76;45.77;101384.75;5113466;28;20130;-93
2023/05/03 10:34:32;;;;;;;10.18;6.00;;;;;;;14.94;47.00;101379.38;5118370;28;20096;-92
2023/05/03 10:37:08;;;;;;;5.82;4.40;;;;;;;15.24;46.01;101389.47;5119234;28;20051;-93
2023/05/03 10:39:44;;;;;;;8.05;4.93;;;;;;;15.38;44.38;101390.50;5134618;28;20039;-93
2023/05/03 10:42:14;;;;;;;7.25;4.68;;;;;;;15.45;44.86;101391.03;5136544;28;20040;-94
2023/05/03 10:44:48;;;;;;;6.55;4.93;;;;;;;15.40;44.11;101361.06;5136828;28;20054;-93
2023/05/03 10:47:18;;;;;;;7.55;4.47;;;;;;;15.62;44.08;101385.72;5135402;28;20107;-93
2023/05/03 10:49:46;;;;;;;7.75;4.72;;;;;;;15.56;42.27;101383.38;5113697;28;20062;-92
2023/05/03 10:52:50;;;;;;;7.18;5.13;;;;;;;15.37;43.30;101377.22;5113069;28;20047;-92
2023/05/03 10:55:25;;;;;;;6.55;4.72;;;;;;;15.27;43.50;101354.59;5098247;28;20043;-94
2023/05/03 10:57:57;;;;;;;7.40;4.70;;;;;;;15.47;43.31;101374.94;5112143;28;20048;-94
2023/05/03 11:00:43;;;;;;;6.57;4.32;;;;;;;15.57;43.12;101374.44;5100197;28;20085;-94
2023/05/03 11:03:38;;;;;;;6.65;4.28;;;;;;;15.66;41.43;101357.03;5132414;28;20095;-92
2023/05/03 11:06:39;;;;;;;7.72;3.55;;;;;;;15.74;41.07;101345.00;5134125;28;20035;-91
2023/05/03 11:09:11;;;;;;;10.10;5.03;;;;;;;16.04;40.80;101347.84;5120281;28;20046;-92
2023/05/03 11:11:46;;;;;;;7.53;4.78;;;;;;;16.16;41.11;101364.16;5135764;28;20044;-92
2023/05/03 11:14:15;;;;;;;10.23;5.20;;;;;;;16.04;41.73;101361.22;5114766;28;20159;-93
2023/05/03 11:16:49;;;;;;;7.53;4.80;;;;;;;16.06;42.07;101350.41;5130161;28;20047;-92
2023/05/03 11:19:16;;;;;;;9.75;4.38;;;;;;;16.03;41.73;101340.78;5112670;28;20096;-93
2023/05/03 11:21:43;;;;;;;7.43;4.43;;;;;;;16.01;42.74;101341.81;5116681;28;20055;-93
2023/05/03 11:24:14;;;;;;;7.75;4.40;;;;;;;15.95;42.12;101350.16;5114226;28;20073;-92
2023/05/03 11:27:00;;;;;;;6.80;4.40;;;;;;;15.95;40.66;101332.31;5125882;28;20127;-92
2023/05/03 11:29:57;;;;;;;8.30;5.03;;;;;;;16.01;41.09;101341.81;5132243;27;20043;-93
2023/05/03 11:32:26;;;;;;;8.23;3.97;;;;;;;16.15;41.64;101325.88;5218759;22;20112;-93
2023/05/03 11:34:53;;;;;;;6.97;4.45;;;;;;;16.35;40.60;101340.81;5050582;28;20049;-93
2023/05/03 11:37:25;;;;;;;7.38;4.10;;;;;;;16.46;41.96;101339.25;5036305;28;20115;-93
2023/05/03 11:40:15;;;;;;;6.45;4.65;;;;;;;16.26;39.68;101285.19;5069703;28;20041;-93
2023/05/03 11:43:01;;;;;;;5.90;4.15;;;;;;;16.49;39.94;101309.69;5042373;28;20052;-93
2023/05/03 11:45:31;;;;;;;8.18;4.85;;;;;;;16.74;40.47;101340.38;5053548;28;20045;-93
2023/05/03 11:48:01;;;;;;;8.07;4.95;;;;;;;16.75;41.49;101334.94;5048751;28;20045;-93
2023/05/03 11:50:54;;;;;;;8.48;4.88;;;;;;;16.78;40.88;101333.91;5036204;28;20071;-93
2023/05/03 11:53:25;;;;;;;8.57;4.63;;;;;;;16.70;41.36;101323.63;5075017;28;20092;-94
2023/05/03 11:55:56;;;;;;;6.80;4.90;;;;;;;16.64;41.68;101337.38;5055471;28;20045;-94